sensor_id;sensor_type;location;lat;lon;timestamp;pressure;altitude;pressure_sealevel;temperature;humidity
33265;BME280;31404;53.974;-1.086;2023-03-26T00:00:36;100460.48;;;7.86;91.61
33265;BME280;31404;53.974;-1.086;2023-03-26T00:05:35;100468.11;;;6.72;95.40
33265;BME280;31404;53.974;-1.086;2023-03-26T00:10:36;100467.29;;;5.51;100.00
33265;BME280;31404;53.974;-1.086;2023-03-26T00:15:36;100468.48;;;5.17;100.00
33265;BME280;31404;53.974;-1.086;2023-03-26T00:20:35;100463.04;;;5.85;100.00
33265;BME280;31404;53.974;-1.086;2023-03-26T00:25:37;100459.65;;;5.96;99.40
33265;BME280;31404;53.974;-1.086;2023-03-26T00:30:36;100446.73;;;6.73;93.29
33265;BME280;31404;53.974;-1.086;2023-03-26T00:35:37;100439.82;;;6.88;93.41
33265;BME280;31404;53.974;-1.086;2023-03-26T00:40:35;100435.97;;;7.15;92.66
33265;BME280;31404;53.974;-1.086;2023-03-26T00:45:35;100436.97;;;6.42;94.22
33265;BME280;31404;53.974;-1.086;2023-03-26T00:50:36;100431.18;;;5.24;100.00
33265;BME280;31404;53.974;-1.086;2023-03-26T00:55:35;100428.77;;;6.68;94.72
33265;BME280;31404;53.974;-1.086;2023-03-26T01:00:38;100421.26;;;6.73;94.67
33265;BME280;31404;53.974;-1.086;2023-03-26T01:10:35;100418.50;;;5.09;100.00
33265;BME280;31404;53.974;-1.086;2023-03-26T01:15:35;100420.75;;;2.18;100.00
33265;BME280;31404;53.974;-1.086;2023-03-26T01:40:38;100405.39;;;4.44;100.00
33265;BME280;31404;53.974;-1.086;2023-03-26T01:45:38;100409.50;;;2.90;100.00
33265;BME280;31404;53.974;-1.086;2023-03-26T01:50:36;100398.33;;;6.12;100.00
33265;BME280;31404;53.974;-1.086;2023-03-26T02:00:37;100406.12;;;6.27;96.25
33265;BME280;31404;53.974;-1.086;2023-03-26T02:05:38;100397.85;;;6.43;96.82
33265;BME280;31404;53.974;-1.086;2023-03-26T02:10:38;100398.11;;;6.66;93.34
33265;BME280;31404;53.974;-1.086;2023-03-26T02:15:35;100411.20;;;4.41;100.00
33265;BME280;31404;53.974;-1.086;2023-03-26T02:20:35;100420.92;;;2.99;100.00
33265;BME280;31404;53.974;-1.086;2023-03-26T02:25:35;100417.74;;;2.10;100.00
33265;BME280;31404;53.974;-1.086;2023-03-26T02:30:34;100415.63;;;2.22;100.00
33265;BME280;31404;53.974;-1.086;2023-03-26T02:35:34;100403.86;;;5.22;100.00
33265;BME280;31404;53.974;-1.086;2023-03-26T02:40:35;100417.98;;;2.63;100.00
33265;BME280;31404;53.974;-1.086;2023-03-26T02:45:35;100422.17;;;2.54;100.00
33265;BME280;31404;53.974;-1.086;2023-03-26T02:50:34;100414.30;;;3.08;100.00
33265;BME280;31404;53.974;-1.086;2023-03-26T02:55:35;100408.31;;;3.61;100.00
33265;BME280;31404;53.974;-1.086;2023-03-26T03:00:35;100408.28;;;4.92;100.00
33265;BME280;31404;53.974;-1.086;2023-03-26T03:05:35;100410.42;;;6.66;94.44
33265;BME280;31404;53.974;-1.086;2023-03-26T03:10:35;100421.22;;;4.10;100.00
33265;BME280;31404;53.974;-1.086;2023-03-26T03:15:35;100418.21;;;4.85;100.00
33265;BME280;31404;53.974;-1.086;2023-03-26T03:20:35;100418.94;;;6.65;92.79
33265;BME280;31404;53.974;-1.086;2023-03-26T03:25:35;100420.14;;;5.81;95.84
33265;BME280;31404;53.974;-1.086;2023-03-26T03:30:35;100422.84;;;6.53;92.43
33265;BME280;31404;53.974;-1.086;2023-03-26T03:35:35;100422.30;;;6.50;91.55
33265;BME280;31404;53.974;-1.086;2023-03-26T03:40:36;100420.32;;;6.29;90.12
33265;BME280;31404;53.974;-1.086;2023-03-26T03:45:35;100423.73;;;6.53;92.14
33265;BME280;31404;53.974;-1.086;2023-03-26T03:50:36;100422.64;;;6.04;92.37
33265;BME280;31404;53.974;-1.086;2023-03-26T03:55:35;100419.66;;;6.92;88.51
33265;BME280;31404;53.974;-1.086;2023-03-26T04:00:35;100424.87;;;6.75;89.20
33265;BME280;31404;53.974;-1.086;2023-03-26T04:05:35;100428.03;;;5.79;93.05
33265;BME280;31404;53.974;-1.086;2023-03-26T04:10:35;100430.50;;;5.97;94.72
33265;BME280;31404;53.974;-1.086;2023-03-26T04:15:35;100432.24;;;5.68;95.23
33265;BME280;31404;53.974;-1.086;2023-03-26T04:20:35;100430.58;;;7.07;88.61
33265;BME280;31404;53.974;-1.086;2023-03-26T04:25:35;100430.99;;;6.56;89.17
33265;BME280;31404;53.974;-1.086;2023-03-26T04:30:35;100426.31;;;6.91;88.72
33265;BME280;31404;53.974;-1.086;2023-03-26T04:35:35;100427.24;;;6.19;91.23
33265;BME280;31404;53.974;-1.086;2023-03-26T04:40:36;100430.22;;;6.50;91.25
33265;BME280;31404;53.974;-1.086;2023-03-26T04:45:34;100432.14;;;5.83;92.22
33265;BME280;31404;53.974;-1.086;2023-03-26T04:50:35;100426.31;;;5.26;95.81
33265;BME280;31404;53.974;-1.086;2023-03-26T05:00:35;100420.36;;;5.02;95.48
33265;BME280;31404;53.974;-1.086;2023-03-26T05:05:35;100425.35;;;5.86;92.41
33265;BME280;31404;53.974;-1.086;2023-03-26T05:10:33;100425.44;;;6.02;92.02
33265;BME280;31404;53.974;-1.086;2023-03-26T05:15:35;100431.52;;;6.01;91.25
33265;BME280;31404;53.974;-1.086;2023-03-26T05:20:35;100437.91;;;5.31;93.80
33265;BME280;31404;53.974;-1.086;2023-03-26T05:25:37;100442.19;;;5.28;95.04
33265;BME280;31404;53.974;-1.086;2023-03-26T05:30:35;100446.99;;;4.96;95.68
33265;BME280;31404;53.974;-1.086;2023-03-26T05:35:35;100448.78;;;5.01;95.67
33265;BME280;31404;53.974;-1.086;2023-03-26T05:40:35;100457.49;;;4.79;97.22
33265;BME280;31404;53.974;-1.086;2023-03-26T05:45:35;100461.45;;;4.41;98.58
33265;BME280;31404;53.974;-1.086;2023-03-26T05:50:36;100459.88;;;5.07;95.51
33265;BME280;31404;53.974;-1.086;2023-03-26T05:55:35;100464.42;;;5.27;94.08
33265;BME280;31404;53.974;-1.086;2023-03-26T06:00:35;100463.96;;;5.60;92.38
33265;BME280;31404;53.974;-1.086;2023-03-26T06:05:36;100474.62;;;4.90;94.34
33265;BME280;31404;53.974;-1.086;2023-03-26T06:10:37;100477.89;;;4.55;95.06
33265;BME280;31404;53.974;-1.086;2023-03-26T06:15:35;100479.66;;;6.07;88.89
33265;BME280;31404;53.974;-1.086;2023-03-26T06:20:36;100490.44;;;5.83;87.61
33265;BME280;31404;53.974;-1.086;2023-03-26T06:25:36;100501.69;;;5.27;90.82
33265;BME280;31404;53.974;-1.086;2023-03-26T06:30:35;100519.55;;;5.22;90.96
33265;BME280;31404;53.974;-1.086;2023-03-26T06:35:35;100529.27;;;5.92;86.96
33265;BME280;31404;53.974;-1.086;2023-03-26T06:40:34;100535.56;;;6.86;85.28
33265;BME280;31404;53.974;-1.086;2023-03-26T06:45:35;100541.46;;;6.44;84.35
33265;BME280;31404;53.974;-1.086;2023-03-26T06:50:36;100547.20;;;6.56;84.33
33265;BME280;31404;53.974;-1.086;2023-03-26T06:55:35;100554.63;;;6.52;82.58
33265;BME280;31404;53.974;-1.086;2023-03-26T07:00:35;100562.40;;;7.38;80.72
33265;BME280;31404;53.974;-1.086;2023-03-26T07:05:35;100567.71;;;6.87;81.55
33265;BME280;31404;53.974;-1.086;2023-03-26T07:10:35;100577.62;;;7.58;78.88
33265;BME280;31404;53.974;-1.086;2023-03-26T07:15:35;100588.22;;;5.94;82.90
33265;BME280;31404;53.974;-1.086;2023-03-26T07:20:35;100599.35;;;5.61;85.01
33265;BME280;31404;53.974;-1.086;2023-03-26T07:25:35;100599.15;;;6.39;82.83
33265;BME280;31404;53.974;-1.086;2023-03-26T07:35:39;100610.25;;;6.54;80.36
33265;BME280;31404;53.974;-1.086;2023-03-26T07:50:35;100629.76;;;6.58;80.70
33265;BME280;31404;53.974;-1.086;2023-03-26T07:55:38;100644.73;;;6.49;81.94
33265;BME280;31404;53.974;-1.086;2023-03-26T08:00:39;100653.68;;;6.59;81.87
33265;BME280;31404;53.974;-1.086;2023-03-26T08:05:38;100663.09;;;5.72;84.61
33265;BME280;31404;53.974;-1.086;2023-03-26T08:15:39;100675.86;;;5.06;84.50
33265;BME280;31404;53.974;-1.086;2023-03-26T08:20:39;100679.89;;;5.66;82.40
33265;BME280;31404;53.974;-1.086;2023-03-26T08:30:35;100691.84;;;7.58;75.69
33265;BME280;31404;53.974;-1.086;2023-03-26T08:35:35;100702.98;;;5.93;78.02
33265;BME280;31404;53.974;-1.086;2023-03-26T09:40:37;100794.83;;;6.16;77.75
33265;BME280;31404;53.974;-1.086;2023-03-26T10:55:37;100934.05;;;6.09;76.43
33265;BME280;31404;53.974;-1.086;2023-03-26T11:20:39;100985.36;;;6.14;77.71
33265;BME280;31404;53.974;-1.086;2023-03-26T11:35:37;101014.77;;;6.51;76.02
33265;BME280;31404;53.974;-1.086;2023-03-26T11:40:37;101028.10;;;5.78;79.84
33265;BME280;31404;53.974;-1.086;2023-03-26T11:45:38;101034.72;;;6.40;77.69
33265;BME280;31404;53.974;-1.086;2023-03-26T11:50:39;101037.33;;;5.01;81.24
33265;BME280;31404;53.974;-1.086;2023-03-26T11:55:36;101057.37;;;5.08;87.62
33265;BME280;31404;53.974;-1.086;2023-03-26T12:00:35;101064.42;;;5.89;82.37
33265;BME280;31404;53.974;-1.086;2023-03-26T12:10:36;101073.48;;;6.57;76.63
33265;BME280;31404;53.974;-1.086;2023-03-26T12:20:35;101092.41;;;6.31;75.77
33265;BME280;31404;53.974;-1.086;2023-03-26T12:25:36;101098.66;;;5.19;78.54
33265;BME280;31404;53.974;-1.086;2023-03-26T12:30:36;101120.37;;;4.71;85.88
33265;BME280;31404;53.974;-1.086;2023-03-26T12:35:35;101131.79;;;4.23;88.84
33265;BME280;31404;53.974;-1.086;2023-03-26T12:40:35;101141.10;;;4.15;86.51
33265;BME280;31404;53.974;-1.086;2023-03-26T12:45:38;101149.73;;;5.00;83.05
33265;BME280;31404;53.974;-1.086;2023-03-26T12:55:41;101155.59;;;5.76;73.72
33265;BME280;31404;53.974;-1.086;2023-03-26T13:15:37;101180.59;;;4.89;70.85
33265;BME280;31404;53.974;-1.086;2023-03-26T13:30:38;101199.32;;;6.86;65.16
33265;BME280;31404;53.974;-1.086;2023-03-26T13:50:37;101227.24;;;5.96;69.24
33265;BME280;31404;53.974;-1.086;2023-03-26T13:55:38;101233.30;;;4.90;70.90
33265;BME280;31404;53.974;-1.086;2023-03-26T14:15:39;101257.08;;;5.33;71.20
33265;BME280;31404;53.974;-1.086;2023-03-26T14:35:37;101274.66;;;7.19;67.49
33265;BME280;31404;53.974;-1.086;2023-03-26T15:45:40;101446.60;;;4.88;82.30
33265;BME280;31404;53.974;-1.086;2023-03-26T16:00:38;101464.32;;;6.54;77.48
33265;BME280;31404;53.974;-1.086;2023-03-26T16:10:39;101468.89;;;6.68;74.73
33265;BME280;31404;53.974;-1.086;2023-03-26T16:15:36;101466.86;;;7.82;72.83
33265;BME280;31404;53.974;-1.086;2023-03-26T16:30:36;101496.65;;;8.61;68.79
33265;BME280;31404;53.974;-1.086;2023-03-26T16:40:37;101506.72;;;8.08;70.34
33265;BME280;31404;53.974;-1.086;2023-03-26T16:45:36;101518.47;;;8.41;67.96
33265;BME280;31404;53.974;-1.086;2023-03-26T16:55:40;101531.49;;;8.88;62.89
33265;BME280;31404;53.974;-1.086;2023-03-26T17:05:40;101556.11;;;5.54;66.19
33265;BME280;31404;53.974;-1.086;2023-03-26T17:25:39;101592.89;;;5.92;66.56
33265;BME280;31404;53.974;-1.086;2023-03-26T17:35:38;101629.84;;;3.55;77.17
33265;BME280;31404;53.974;-1.086;2023-03-26T17:45:38;101653.08;;;3.96;78.72
33265;BME280;31404;53.974;-1.086;2023-03-26T17:55:36;101658.83;;;4.25;79.12
33265;BME280;31404;53.974;-1.086;2023-03-26T18:05:37;101680.94;;;5.38;73.16
33265;BME280;31404;53.974;-1.086;2023-03-26T18:20:36;101691.61;;;7.08;68.05
33265;BME280;31404;53.974;-1.086;2023-03-26T18:25:35;101702.73;;;5.82;69.14
33265;BME280;31404;53.974;-1.086;2023-03-26T18:45:36;101732.76;;;5.73;72.36
33265;BME280;31404;53.974;-1.086;2023-03-26T18:50:39;101742.92;;;5.38;75.45
33265;BME280;31404;53.974;-1.086;2023-03-26T18:55:35;101745.34;;;6.17;71.64
33265;BME280;31404;53.974;-1.086;2023-03-26T19:00:35;101761.51;;;6.70;70.08
33265;BME280;31404;53.974;-1.086;2023-03-26T19:05:35;101776.84;;;5.72;72.88
33265;BME280;31404;53.974;-1.086;2023-03-26T19:10:36;101777.87;;;6.51;70.52
33265;BME280;31404;53.974;-1.086;2023-03-26T19:15:35;101775.68;;;7.86;66.73
33265;BME280;31404;53.974;-1.086;2023-03-26T19:20:39;101790.33;;;7.03;67.61
33265;BME280;31404;53.974;-1.086;2023-03-26T19:40:34;101831.99;;;6.55;69.47
33265;BME280;31404;53.974;-1.086;2023-03-26T19:45:35;101846.09;;;6.61;67.94
33265;BME280;31404;53.974;-1.086;2023-03-26T19:50:39;101849.32;;;5.82;70.09
33265;BME280;31404;53.974;-1.086;2023-03-26T19:55:35;101862.73;;;4.77;73.67
33265;BME280;31404;53.974;-1.086;2023-03-26T20:00:35;101866.26;;;3.80;74.43
33265;BME280;31404;53.974;-1.086;2023-03-26T20:05:35;101865.90;;;5.33;71.83
33265;BME280;31404;53.974;-1.086;2023-03-26T20:10:36;101875.14;;;4.26;73.20
33265;BME280;31404;53.974;-1.086;2023-03-26T20:15:36;101874.79;;;4.67;71.39
33265;BME280;31404;53.974;-1.086;2023-03-26T20:20:35;101876.85;;;4.32;72.59
33265;BME280;31404;53.974;-1.086;2023-03-26T20:25:35;101883.96;;;4.50;73.04
33265;BME280;31404;53.974;-1.086;2023-03-26T20:30:35;101888.81;;;5.19;69.67
33265;BME280;31404;53.974;-1.086;2023-03-26T20:35:35;101892.62;;;5.62;68.47
33265;BME280;31404;53.974;-1.086;2023-03-26T20:40:35;101902.38;;;5.39;69.75
33265;BME280;31404;53.974;-1.086;2023-03-26T20:45:35;101909.38;;;4.61;71.72
33265;BME280;31404;53.974;-1.086;2023-03-26T20:50:36;101910.08;;;5.74;69.03
33265;BME280;31404;53.974;-1.086;2023-03-26T20:55:35;101916.46;;;5.18;71.06
33265;BME280;31404;53.974;-1.086;2023-03-26T21:00:35;101930.32;;;4.01;75.30
33265;BME280;31404;53.974;-1.086;2023-03-26T21:05:35;101936.56;;;3.13;78.77
33265;BME280;31404;53.974;-1.086;2023-03-26T21:10:35;101941.19;;;4.37;76.00
33265;BME280;31404;53.974;-1.086;2023-03-26T21:15:36;101946.09;;;4.85;72.32
33265;BME280;31404;53.974;-1.086;2023-03-26T21:20:36;101954.55;;;4.60;76.32
33265;BME280;31404;53.974;-1.086;2023-03-26T21:25:40;101965.03;;;3.82;79.24
33265;BME280;31404;53.974;-1.086;2023-03-26T21:30:35;101970.09;;;3.97;78.12
33265;BME280;31404;53.974;-1.086;2023-03-26T21:35:35;101977.20;;;2.42;86.71
33265;BME280;31404;53.974;-1.086;2023-03-26T21:40:36;101985.75;;;3.97;79.51
33265;BME280;31404;53.974;-1.086;2023-03-26T21:45:35;101989.56;;;3.61;81.81
33265;BME280;31404;53.974;-1.086;2023-03-26T21:50:36;102001.01;;;2.03;88.54
33265;BME280;31404;53.974;-1.086;2023-03-26T22:10:35;102011.93;;;3.14;86.23
33265;BME280;31404;53.974;-1.086;2023-03-26T22:15:35;102019.79;;;3.54;85.02
33265;BME280;31404;53.974;-1.086;2023-03-26T22:20:35;102032.08;;;3.73;84.52
33265;BME280;31404;53.974;-1.086;2023-03-26T22:25:35;102039.35;;;2.90;86.21
33265;BME280;31404;53.974;-1.086;2023-03-26T22:30:35;102049.41;;;2.52;90.97
33265;BME280;31404;53.974;-1.086;2023-03-26T22:35:35;102072.94;;;2.08;93.75
33265;BME280;31404;53.974;-1.086;2023-03-26T22:40:35;102079.11;;;2.51;94.72
33265;BME280;31404;53.974;-1.086;2023-03-26T22:45:35;102080.56;;;2.80;92.16
33265;BME280;31404;53.974;-1.086;2023-03-26T22:50:36;102083.64;;;2.71;93.44
33265;BME280;31404;53.974;-1.086;2023-03-26T22:55:35;102074.95;;;3.97;86.49
33265;BME280;31404;53.974;-1.086;2023-03-26T23:00:36;102083.06;;;2.76;91.42
33265;BME280;31404;53.974;-1.086;2023-03-26T23:05:35;102089.53;;;2.76;90.56
33265;BME280;31404;53.974;-1.086;2023-03-26T23:10:35;102091.13;;;2.66;95.65
33265;BME280;31404;53.974;-1.086;2023-03-26T23:15:35;102095.21;;;2.44;95.14
33265;BME280;31404;53.974;-1.086;2023-03-26T23:20:35;102106.02;;;3.84;88.87
33265;BME280;31404;53.974;-1.086;2023-03-26T23:25:35;102123.87;;;3.99;87.69
33265;BME280;31404;53.974;-1.086;2023-03-26T23:30:35;102129.01;;;3.44;90.97
33265;BME280;31404;53.974;-1.086;2023-03-26T23:35:35;102137.00;;;0.94;100.00
33265;BME280;31404;53.974;-1.086;2023-03-26T23:40:35;102137.59;;;2.70;96.01
33265;BME280;31404;53.974;-1.086;2023-03-26T23:45:35;102129.84;;;3.37;91.63
33265;BME280;31404;53.974;-1.086;2023-03-26T23:50:36;102136.20;;;2.21;98.82
33265;BME280;31404;53.974;-1.086;2023-03-26T23:55:35;102136.53;;;2.21;95.81
